sensor_id;sensor_type;location;lat;lon;timestamp;temperature;humidity
55673;DHT22;41554;45.366;20.400;2022-10-15T00:01:08;384.10;2329.60
55673;DHT22;41554;45.366;20.400;2022-10-15T00:03:38;384.10;2329.60
55673;DHT22;41554;45.366;20.400;2022-10-15T00:06:13;384.00;2329.60
55673;DHT22;41554;45.366;20.400;2022-10-15T00:08:40;384.00;2329.60
55673;DHT22;41554;45.366;20.400;2022-10-15T00:11:13;384.00;2329.60
55673;DHT22;41554;45.366;20.400;2022-10-15T00:13:39;384.00;2329.60
55673;DHT22;41554;45.366;20.400;2022-10-15T00:16:11;384.00;2329.60
55673;DHT22;41554;45.366;20.400;2022-10-15T00:18:38;384.00;2329.60
55673;DHT22;41554;45.366;20.400;2022-10-15T00:21:05;384.00;2329.60
55673;DHT22;41554;45.366;20.400;2022-10-15T00:23:32;384.00;2329.60
55673;DHT22;41554;45.366;20.400;2022-10-15T00:26:08;384.00;2329.60
55673;DHT22;41554;45.366;20.400;2022-10-15T00:28:35;384.00;2329.60
55673;DHT22;41554;45.366;20.400;2022-10-15T00:31:06;384.00;2329.60
55673;DHT22;41554;45.366;20.400;2022-10-15T00:33:33;359.30;2329.60
55673;DHT22;41554;45.366;20.400;2022-10-15T00:36:04;359.30;2329.60
55673;DHT22;41554;45.366;20.400;2022-10-15T00:38:30;359.30;2329.60
55673;DHT22;41554;45.366;20.400;2022-10-15T00:40:56;359.30;2329.60
55673;DHT22;41554;45.366;20.400;2022-10-15T00:46:32;359.30;2329.60
55673;DHT22;41554;45.366;20.400;2022-10-15T00:51:38;359.20;2329.60
55673;DHT22;41554;45.366;20.400;2022-10-15T00:54:07;359.20;2329.60
55673;DHT22;41554;45.366;20.400;2022-10-15T00:56:35;359.20;2329.60
55673;DHT22;41554;45.366;20.400;2022-10-15T00:59:03;359.20;2329.60
55673;DHT22;41554;45.366;20.400;2022-10-15T01:01:29;359.20;2329.60
55673;DHT22;41554;45.366;20.400;2022-10-15T01:03:55;359.20;2329.60
55673;DHT22;41554;45.366;20.400;2022-10-15T01:06:22;359.20;2329.60
55673;DHT22;41554;45.366;20.400;2022-10-15T01:08:48;359.20;2329.60
55673;DHT22;41554;45.366;20.400;2022-10-15T01:11:17;359.20;2329.60
55673;DHT22;41554;45.366;20.400;2022-10-15T01:31:14;359.20;2329.60
55673;DHT22;41554;45.366;20.400;2022-10-15T01:34:03;359.20;2329.60
55673;DHT22;41554;45.366;20.400;2022-10-15T01:36:44;359.20;2329.60
55673;DHT22;41554;45.366;20.400;2022-10-15T01:39:33;359.20;2329.60
55673;DHT22;41554;45.366;20.400;2022-10-15T01:42:03;359.20;2329.60
55673;DHT22;41554;45.366;20.400;2022-10-15T01:44:41;359.20;2329.60
55673;DHT22;41554;45.366;20.400;2022-10-15T01:47:20;359.20;2329.60
55673;DHT22;41554;45.366;20.400;2022-10-15T01:49:48;359.10;2329.60
55673;DHT22;41554;45.366;20.400;2022-10-15T01:52:22;359.30;2329.60
55673;DHT22;41554;45.366;20.400;2022-10-15T01:54:51;359.10;2329.60
55673;DHT22;41554;45.366;20.400;2022-10-15T01:57:18;359.10;2329.60
55673;DHT22;41554;45.366;20.400;2022-10-15T01:59:45;359.10;2329.60
55673;DHT22;41554;45.366;20.400;2022-10-15T02:02:11;359.10;2329.60
55673;DHT22;41554;45.366;20.400;2022-10-15T02:04:36;359.20;2329.60
55673;DHT22;41554;45.366;20.400;2022-10-15T02:10:04;359.00;2329.60
55673;DHT22;41554;45.366;20.400;2022-10-15T02:18:10;358.90;2329.60
55673;DHT22;41554;45.366;20.400;2022-10-15T02:23:33;358.90;2329.60
55673;DHT22;41554;45.366;20.400;2022-10-15T02:26:03;358.80;2329.60
55673;DHT22;41554;45.366;20.400;2022-10-15T02:28:30;358.80;2329.60
55673;DHT22;41554;45.366;20.400;2022-10-15T02:30:58;358.80;2329.60
55673;DHT22;41554;45.366;20.400;2022-10-15T02:33:26;358.80;2329.60
55673;DHT22;41554;45.366;20.400;2022-10-15T02:35:54;358.80;2329.60
55673;DHT22;41554;45.366;20.400;2022-10-15T02:38:24;358.70;2329.60
55673;DHT22;41554;45.366;20.400;2022-10-15T02:40:50;358.70;2329.60
55673;DHT22;41554;45.366;20.400;2022-10-15T02:43:19;358.70;2329.60
55673;DHT22;41554;45.366;20.400;2022-10-15T02:45:45;358.70;2329.60
55673;DHT22;41554;45.366;20.400;2022-10-15T02:48:11;358.60;2329.60
55673;DHT22;41554;45.366;20.400;2022-10-15T02:50:36;358.60;2329.60
55673;DHT22;41554;45.366;20.400;2022-10-15T02:53:02;358.60;2329.60
55673;DHT22;41554;45.366;20.400;2022-10-15T02:55:28;359.00;2329.60
55673;DHT22;41554;45.366;20.400;2022-10-15T02:57:53;358.60;2329.60
55673;DHT22;41554;45.366;20.400;2022-10-15T03:00:19;358.80;2329.60
55673;DHT22;41554;45.366;20.400;2022-10-15T03:02:45;358.60;2329.60
55673;DHT22;41554;45.366;20.400;2022-10-15T03:05:11;358.50;2329.60
55673;DHT22;41554;45.366;20.400;2022-10-15T03:07:37;358.50;2329.60
55673;DHT22;41554;45.366;20.400;2022-10-15T03:10:03;358.50;2329.60
55673;DHT22;41554;45.366;20.400;2022-10-15T03:12:29;358.40;2329.60
55673;DHT22;41554;45.366;20.400;2022-10-15T03:14:55;358.40;2329.60
55673;DHT22;41554;45.366;20.400;2022-10-15T03:17:21;358.40;2329.60
55673;DHT22;41554;45.366;20.400;2022-10-15T03:19:46;333.70;2329.60
55673;DHT22;41554;45.366;20.400;2022-10-15T03:22:12;333.70;2329.60
55673;DHT22;41554;45.366;20.400;2022-10-15T03:24:38;333.70;2329.60
55673;DHT22;41554;45.366;20.400;2022-10-15T03:27:03;333.70;2329.60
55673;DHT22;41554;45.366;20.400;2022-10-15T03:29:29;333.70;2329.60
55673;DHT22;41554;45.366;20.400;2022-10-15T03:31:55;333.70;2329.60
55673;DHT22;41554;45.366;20.400;2022-10-15T03:34:20;333.70;2329.60
55673;DHT22;41554;45.366;20.400;2022-10-15T03:36:46;333.70;2329.60
55673;DHT22;41554;45.366;20.400;2022-10-15T03:39:12;333.70;2329.60
55673;DHT22;41554;45.366;20.400;2022-10-15T03:41:38;333.70;2329.60
55673;DHT22;41554;45.366;20.400;2022-10-15T03:44:05;333.70;2329.60
55673;DHT22;41554;45.366;20.400;2022-10-15T03:46:32;333.70;2329.60
55673;DHT22;41554;45.366;20.400;2022-10-15T03:48:58;333.70;2329.60
55673;DHT22;41554;45.366;20.400;2022-10-15T03:51:24;333.70;2329.60
55673;DHT22;41554;45.366;20.400;2022-10-15T03:53:49;358.40;2329.60
55673;DHT22;41554;45.366;20.400;2022-10-15T03:56:15;333.70;2329.60
55673;DHT22;41554;45.366;20.400;2022-10-15T03:58:41;333.70;2329.60
55673;DHT22;41554;45.366;20.400;2022-10-15T04:01:08;333.70;2329.60
55673;DHT22;41554;45.366;20.400;2022-10-15T04:03:34;333.70;2329.60
55673;DHT22;41554;45.366;20.400;2022-10-15T04:06:00;333.70;2329.60
55673;DHT22;41554;45.366;20.400;2022-10-15T04:08:25;333.70;2329.60
55673;DHT22;41554;45.366;20.400;2022-10-15T04:10:51;333.70;2329.60
55673;DHT22;41554;45.366;20.400;2022-10-15T04:13:17;333.70;2329.60
55673;DHT22;41554;45.366;20.400;2022-10-15T04:15:42;333.70;2329.60
55673;DHT22;41554;45.366;20.400;2022-10-15T04:18:08;333.70;2329.60
55673;DHT22;41554;45.366;20.400;2022-10-15T04:20:34;333.70;2329.60
55673;DHT22;41554;45.366;20.400;2022-10-15T04:23:00;333.70;2329.60
55673;DHT22;41554;45.366;20.400;2022-10-15T04:25:25;333.70;2329.60
55673;DHT22;41554;45.366;20.400;2022-10-15T04:27:51;333.70;2329.60
55673;DHT22;41554;45.366;20.400;2022-10-15T04:30:18;333.60;2329.60
55673;DHT22;41554;45.366;20.400;2022-10-15T04:32:43;333.60;2329.60
55673;DHT22;41554;45.366;20.400;2022-10-15T04:35:09;333.60;2329.60
55673;DHT22;41554;45.366;20.400;2022-10-15T04:37:35;333.60;2329.60
55673;DHT22;41554;45.366;20.400;2022-10-15T04:40:01;333.60;2329.60
55673;DHT22;41554;45.366;20.400;2022-10-15T04:42:29;333.60;2329.60
55673;DHT22;41554;45.366;20.400;2022-10-15T04:44:55;333.60;2329.60
55673;DHT22;41554;45.366;20.400;2022-10-15T04:47:21;333.60;2329.60
55673;DHT22;41554;45.366;20.400;2022-10-15T04:49:47;333.60;2329.60
55673;DHT22;41554;45.366;20.400;2022-10-15T04:52:13;333.60;2329.60
55673;DHT22;41554;45.366;20.400;2022-10-15T04:54:39;333.60;2329.60
55673;DHT22;41554;45.366;20.400;2022-10-15T04:57:05;333.60;2329.60
55673;DHT22;41554;45.366;20.400;2022-10-15T04:59:31;333.60;2329.60
55673;DHT22;41554;45.366;20.400;2022-10-15T05:01:57;333.60;2329.60
55673;DHT22;41554;45.366;20.400;2022-10-15T05:04:22;333.60;2329.60
55673;DHT22;41554;45.366;20.400;2022-10-15T05:06:48;333.60;2329.60
55673;DHT22;41554;45.366;20.400;2022-10-15T05:09:14;333.60;2329.60
55673;DHT22;41554;45.366;20.400;2022-10-15T05:11:39;333.60;2329.60
55673;DHT22;41554;45.366;20.400;2022-10-15T05:14:06;333.60;2329.60
55673;DHT22;41554;45.366;20.400;2022-10-15T05:16:32;333.60;2329.60
55673;DHT22;41554;45.366;20.400;2022-10-15T05:19:03;333.60;2329.60
55673;DHT22;41554;45.366;20.400;2022-10-15T05:21:30;333.60;2329.60
55673;DHT22;41554;45.366;20.400;2022-10-15T05:23:57;333.60;2329.60
55673;DHT22;41554;45.366;20.400;2022-10-15T05:26:24;333.60;2329.60
55673;DHT22;41554;45.366;20.400;2022-10-15T05:28:51;333.60;2329.60
55673;DHT22;41554;45.366;20.400;2022-10-15T05:31:21;333.60;2329.60
55673;DHT22;41554;45.366;20.400;2022-10-15T05:33:48;333.60;2329.60
55673;DHT22;41554;45.366;20.400;2022-10-15T05:36:25;333.60;2329.60
55673;DHT22;41554;45.366;20.400;2022-10-15T05:38:58;333.60;2329.60
55673;DHT22;41554;45.366;20.400;2022-10-15T05:41:25;333.60;2329.60
55673;DHT22;41554;45.366;20.400;2022-10-15T05:43:52;333.70;2329.60
55673;DHT22;41554;45.366;20.400;2022-10-15T05:46:19;333.70;2329.60
55673;DHT22;41554;45.366;20.400;2022-10-15T05:48:49;358.40;2329.60
55673;DHT22;41554;45.366;20.400;2022-10-15T05:51:15;358.50;2329.60
55673;DHT22;41554;45.366;20.400;2022-10-15T05:53:41;358.50;2329.60
55673;DHT22;41554;45.366;20.400;2022-10-15T05:56:08;358.60;2329.60
55673;DHT22;41554;45.366;20.400;2022-10-15T05:58:35;358.60;2329.60
55673;DHT22;41554;45.366;20.400;2022-10-15T06:01:04;358.70;2329.60
55673;DHT22;41554;45.366;20.400;2022-10-15T06:03:31;358.80;2329.60
55673;DHT22;41554;45.366;20.400;2022-10-15T06:05:56;358.80;2329.60
55673;DHT22;41554;45.366;20.400;2022-10-15T06:08:22;358.90;2329.60
55673;DHT22;41554;45.366;20.400;2022-10-15T06:10:48;358.90;2329.60
55673;DHT22;41554;45.366;20.400;2022-10-15T06:13:14;359.00;2329.60
55673;DHT22;41554;45.366;20.400;2022-10-15T06:15:41;359.00;2329.60
55673;DHT22;41554;45.366;20.400;2022-10-15T06:18:07;359.00;2329.60
55673;DHT22;41554;45.366;20.400;2022-10-15T06:20:34;359.10;2329.60
55673;DHT22;41554;45.366;20.400;2022-10-15T06:23:00;359.10;2329.60
55673;DHT22;41554;45.366;20.400;2022-10-15T06:25:26;359.10;2329.60
55673;DHT22;41554;45.366;20.400;2022-10-15T06:27:52;359.20;2329.60
55673;DHT22;41554;45.366;20.400;2022-10-15T06:30:19;359.20;2329.60
55673;DHT22;41554;45.366;20.400;2022-10-15T06:32:52;359.20;2329.60
55673;DHT22;41554;45.366;20.400;2022-10-15T06:35:19;359.30;2329.60
55673;DHT22;41554;45.366;20.400;2022-10-15T06:37:46;359.30;2329.60
55673;DHT22;41554;45.366;20.400;2022-10-15T06:40:12;384.00;2329.60
55673;DHT22;41554;45.366;20.400;2022-10-15T06:42:39;384.00;2329.60
55673;DHT22;41554;45.366;20.400;2022-10-15T06:45:05;384.10;2329.60
55673;DHT22;41554;45.366;20.400;2022-10-15T06:47:31;384.10;2329.60
55673;DHT22;41554;45.366;20.400;2022-10-15T06:49:57;384.10;2329.60
55673;DHT22;41554;45.366;20.400;2022-10-15T06:52:23;384.20;2329.60
55673;DHT22;41554;45.366;20.400;2022-10-15T06:54:49;384.30;2329.60
55673;DHT22;41554;45.366;20.400;2022-10-15T06:57:15;384.30;2329.60
55673;DHT22;41554;45.366;20.400;2022-10-15T06:59:41;384.30;2329.60
55673;DHT22;41554;45.366;20.400;2022-10-15T07:02:10;384.40;2329.60
55673;DHT22;41554;45.366;20.400;2022-10-15T07:04:36;384.40;2329.60
55673;DHT22;41554;45.366;20.400;2022-10-15T07:07:01;384.50;2329.60
55673;DHT22;41554;45.366;20.400;2022-10-15T07:09:27;384.50;2329.60
